createdAt,value
2023-03-23T00:01:20.679Z,99571.00
2023-03-23T00:03:47.191Z,99564.59
2023-03-23T00:06:18.192Z,99563.44
2023-03-23T00:08:47.751Z,99557.25
2023-03-23T00:11:25.230Z,99558.94
2023-03-23T00:13:54.813Z,99554.25
2023-03-23T00:16:21.391Z,99552.25
2023-03-23T00:18:48.115Z,99558.63
2023-03-23T00:21:14.778Z,99562.56
2023-03-23T00:23:41.229Z,99555.94
2023-03-23T00:26:07.710Z,99562.09
2023-03-23T00:28:34.422Z,99559.59
2023-03-23T00:31:00.828Z,99556.19
2023-03-23T00:33:27.580Z,99565.06
2023-03-23T00:35:54.582Z,99560.00
2023-03-23T00:38:21.461Z,99557.63
2023-03-23T00:40:48.397Z,99560.03
2023-03-23T00:43:14.870Z,99555.56
2023-03-23T00:45:41.484Z,99557.63
2023-03-23T00:48:08.089Z,99557.69
2023-03-23T00:50:39.060Z,99552.91
2023-03-23T00:53:05.720Z,99540.44
2023-03-23T00:55:32.240Z,99539.22
2023-03-23T00:57:58.825Z,99544.09
2023-03-23T01:00:25.260Z,99542.56
2023-03-23T01:02:52.635Z,99544.09
2023-03-23T01:05:19.090Z,99529.75
2023-03-23T01:07:45.537Z,99525.78
2023-03-23T01:10:13.722Z,99532.91
2023-03-23T01:12:40.202Z,99528.50
2023-03-23T01:15:07.204Z,99532.16
2023-03-23T01:17:33.645Z,99521.84
2023-03-23T01:20:00.063Z,99514.09
2023-03-23T01:22:26.736Z,99507.34
2023-03-23T01:24:53.145Z,99509.72
2023-03-23T01:27:19.605Z,99494.59
2023-03-23T01:29:46.028Z,99489.72
2023-03-23T01:32:12.428Z,99497.37
2023-03-23T01:34:38.848Z,99491.41
2023-03-23T01:37:09.327Z,99499.00
2023-03-23T01:39:35.748Z,99495.84
2023-03-23T01:42:02.187Z,99484.25
2023-03-23T01:44:28.995Z,99493.06
2023-03-23T01:46:56.032Z,99488.34
2023-03-23T01:49:22.516Z,99477.91
2023-03-23T01:51:48.939Z,99468.37
2023-03-23T01:54:15.373Z,99468.31
2023-03-23T01:56:42.329Z,99463.53
2023-03-23T01:59:08.818Z,99471.53
2023-03-23T02:01:37.843Z,99468.69
2023-03-23T02:04:04.293Z,99469.13
2023-03-23T02:06:30.998Z,99468.00
2023-03-23T02:08:57.408Z,99467.22
2023-03-23T02:11:36.862Z,99470.88
2023-03-23T02:14:03.980Z,99477.25
2023-03-23T02:16:30.576Z,99467.94
2023-03-23T02:18:57.273Z,99463.12
2023-03-23T02:21:23.815Z,99464.75
2023-03-23T02:23:51.449Z,99467.53
2023-03-23T02:26:17.888Z,99464.41
2023-03-23T02:28:44.388Z,99456.41
2023-03-23T02:31:12.439Z,99462.81
2023-03-23T02:33:38.877Z,99457.53
2023-03-23T02:36:05.297Z,99464.31
2023-03-23T02:38:32.130Z,99467.41
2023-03-23T02:40:58.595Z,99465.84
2023-03-23T02:43:25.009Z,99466.59
2023-03-23T02:46:01.730Z,99464.19
2023-03-23T02:48:28.136Z,99466.66
2023-03-23T02:50:54.567Z,99466.16
2023-03-23T02:53:21.385Z,99453.78
2023-03-23T02:55:47.861Z,99461.72
2023-03-23T02:58:14.331Z,99465.66
2023-03-23T03:00:40.857Z,99456.47
2023-03-23T03:03:07.744Z,99469.22
2023-03-23T03:05:34.638Z,99461.63
2023-03-23T03:08:01.052Z,99456.38
2023-03-23T03:10:27.856Z,99453.94
2023-03-23T03:12:54.422Z,99451.97
2023-03-23T03:15:20.901Z,99450.38
2023-03-23T03:17:47.490Z,99456.38
2023-03-23T03:20:15.218Z,99454.78
2023-03-23T03:22:45.124Z,99448.78
2023-03-23T03:25:18.097Z,99444.37
2023-03-23T03:27:45.350Z,99453.56
2023-03-23T03:30:13.180Z,99440.84
2023-03-23T03:32:40.177Z,99449.63
2023-03-23T03:35:07.005Z,99440.84
2023-03-23T03:37:33.595Z,99446.44
2023-03-23T03:40:00.575Z,99442.47
2023-03-23T03:42:27.282Z,99445.72
2023-03-23T03:44:53.794Z,99440.53
2023-03-23T03:47:20.238Z,99449.25
2023-03-23T03:49:46.816Z,99433.38
2023-03-23T03:52:13.434Z,99444.50
2023-03-23T03:54:41.693Z,99443.81
2023-03-23T03:57:09.276Z,99434.50
2023-03-23T03:59:35.716Z,99441.78
2023-03-23T04:02:02.438Z,99447.06
2023-03-23T04:04:29.713Z,99440.66
2023-03-23T04:06:56.115Z,99438.75
2023-03-23T04:09:22.890Z,99440.66
2023-03-23T04:11:49.675Z,99438.72
2023-03-23T04:14:16.797Z,99440.25
2023-03-23T04:16:54.348Z,99438.25
2023-03-23T04:19:21.051Z,99428.25
2023-03-23T04:21:50.168Z,99428.66
2023-03-23T04:24:23.337Z,99422.59
2023-03-23T04:27:02.983Z,99427.00
2023-03-23T04:29:29.389Z,99422.66
2023-03-23T04:31:57.368Z,99417.47
2023-03-23T04:34:24.434Z,99416.34
2023-03-23T04:36:56.046Z,99419.19
2023-03-23T04:39:25.305Z,99418.34
2023-03-23T04:41:52.725Z,99415.88
2023-03-23T04:44:22.513Z,99415.16
2023-03-23T04:46:50.782Z,99416.81
2023-03-23T04:49:22.040Z,99415.97
2023-03-23T04:51:48.634Z,99408.75
2023-03-23T04:54:15.594Z,99412.38
2023-03-23T04:56:42.477Z,99412.78
2023-03-23T04:59:08.900Z,99414.78
2023-03-23T05:01:38.196Z,99417.53
2023-03-23T05:04:07.013Z,99421.91
2023-03-23T05:06:33.514Z,99414.34
2023-03-23T05:08:59.977Z,99414.84
2023-03-23T05:11:26.593Z,99395.88
2023-03-23T05:13:53.029Z,99401.06
2023-03-23T05:16:19.598Z,99401.88
2023-03-23T05:18:47.589Z,99407.56
2023-03-23T05:21:15.389Z,99422.00
2023-03-23T05:23:42.121Z,99417.19
2023-03-23T05:26:08.620Z,99419.19
2023-03-23T05:28:35.086Z,99416.44
2023-03-23T05:31:01.501Z,99418.91
2023-03-23T05:33:27.934Z,99412.06
2023-03-23T05:35:54.382Z,99402.50
2023-03-23T05:38:20.853Z,99406.91
2023-03-23T05:40:47.326Z,99397.78
2023-03-23T05:43:13.745Z,99410.97
2023-03-23T05:45:40.714Z,99416.69
2023-03-23T05:48:07.330Z,99406.69
2023-03-23T05:50:34.270Z,99414.41
2023-03-23T05:53:00.723Z,99411.91
2023-03-23T05:55:27.162Z,99407.22
2023-03-23T05:57:53.593Z,99404.47
2023-03-23T06:00:24.582Z,99398.47
2023-03-23T06:02:52.094Z,99418.44
2023-03-23T06:05:18.815Z,99424.38
2023-03-23T06:07:45.382Z,99420.00
2023-03-23T06:10:12.139Z,99424.75
2023-03-23T06:12:38.587Z,99418.44
2023-03-23T06:15:05.297Z,99420.28
2023-03-23T06:17:31.802Z,99434.66
2023-03-23T06:19:58.937Z,99426.41
2023-03-23T06:22:26.168Z,99416.13
2023-03-23T06:24:52.638Z,99408.66
2023-03-23T06:27:19.102Z,99410.00
2023-03-23T06:29:45.530Z,99404.03
2023-03-23T06:32:11.968Z,99403.72
2023-03-23T06:34:38.783Z,99405.38
2023-03-23T06:37:06.607Z,99402.34
2023-03-23T06:39:33.147Z,99406.81
2023-03-23T06:42:01.021Z,99413.72
2023-03-23T06:44:27.480Z,99404.06
2023-03-23T06:46:53.885Z,99421.06
2023-03-23T06:49:21.136Z,99413.56
2023-03-23T06:51:47.614Z,99416.41
2023-03-23T06:54:14.047Z,99431.38
2023-03-23T06:56:40.896Z,99422.97
2023-03-23T06:59:08.414Z,99439.94
2023-03-23T07:01:34.886Z,99443.16
2023-03-23T07:04:01.486Z,99441.56
2023-03-23T07:06:28.481Z,99432.44
2023-03-23T07:08:54.911Z,99438.56
2023-03-23T07:11:21.350Z,99438.63
2023-03-23T07:13:47.951Z,99440.66
2023-03-23T07:16:14.368Z,99443.16
2023-03-23T07:18:40.970Z,99439.97
2023-03-23T07:21:07.701Z,99437.22
2023-03-23T07:23:34.180Z,99432.47
2023-03-23T07:26:00.668Z,99443.72
2023-03-23T07:28:27.556Z,99446.53
2023-03-23T07:30:53.994Z,99448.16
2023-03-23T07:33:20.538Z,99450.94
2023-03-23T07:35:47.005Z,99455.00
2023-03-23T07:38:13.486Z,99457.38
2023-03-23T07:40:40.131Z,99446.53
2023-03-23T07:43:06.953Z,99453.75
2023-03-23T07:45:33.407Z,99463.41
2023-03-23T07:48:00.781Z,99463.41
2023-03-23T07:50:27.449Z,99469.03
2023-03-23T07:52:53.868Z,99468.63
2023-03-23T07:55:20.305Z,99475.06
2023-03-23T07:57:46.732Z,99474.28
2023-03-23T08:00:20.251Z,99477.91
2023-03-23T08:02:46.996Z,99477.53
2023-03-23T08:05:14.585Z,99481.56
2023-03-23T08:07:41.546Z,99477.50
2023-03-23T08:10:11.261Z,99471.47
2023-03-23T08:12:37.914Z,99471.88
2023-03-23T08:15:04.517Z,99476.72
2023-03-23T08:17:30.952Z,99489.59
2023-03-23T08:19:57.362Z,99487.59
2023-03-23T08:22:23.802Z,99487.16
2023-03-23T08:24:50.323Z,99481.94
2023-03-23T08:27:16.744Z,99492.38
2023-03-23T08:29:43.170Z,99493.59
2023-03-23T08:32:09.593Z,99495.16
2023-03-23T08:34:36.033Z,99492.34
2023-03-23T08:37:02.892Z,99496.75
2023-03-23T08:39:31.280Z,99517.19
2023-03-23T08:41:57.746Z,99518.88
2023-03-23T08:44:24.704Z,99493.16
2023-03-23T08:46:55.782Z,99498.37
2023-03-23T08:49:22.829Z,99501.19
2023-03-23T08:51:49.741Z,99504.72
2023-03-23T08:54:16.172Z,99503.91
2023-03-23T08:56:43.335Z,99511.59
2023-03-23T08:59:10.328Z,99511.16
2023-03-23T09:01:37.134Z,99511.94
2023-03-23T09:04:03.540Z,99517.16
2023-03-23T09:06:30.001Z,99511.16
2023-03-23T09:08:57.002Z,99517.56
2023-03-23T09:11:23.448Z,99509.12
2023-03-23T09:13:49.937Z,99503.94
2023-03-23T09:16:16.341Z,99506.78
2023-03-23T09:18:42.774Z,99509.94
2023-03-23T09:21:19.076Z,99521.31
2023-03-23T09:23:46.695Z,99525.69
2023-03-23T09:26:13.126Z,99522.88
2023-03-23T09:28:39.780Z,99518.47
2023-03-23T09:31:06.190Z,99524.81
2023-03-23T09:33:36.028Z,99531.56
2023-03-23T09:36:15.307Z,99533.97
2023-03-23T09:38:42.684Z,99525.97
2023-03-23T09:41:09.120Z,99546.41
2023-03-23T09:43:35.571Z,99549.69
2023-03-23T09:46:02.113Z,99534.34
2023-03-23T09:48:28.876Z,99546.75
2023-03-23T09:50:55.635Z,99548.31
2023-03-23T09:53:22.088Z,99549.97
2023-03-23T09:55:50.056Z,99543.09
2023-03-23T09:58:17.571Z,99544.19
2023-03-23T10:00:44.066Z,99534.09
2023-03-23T10:03:10.680Z,99544.16
2023-03-23T10:05:37.180Z,99542.34
2023-03-23T10:08:03.620Z,99540.72
2023-03-23T10:10:30.024Z,99538.03
2023-03-23T10:12:59.521Z,99544.41
2023-03-23T10:15:25.957Z,99539.28
2023-03-23T10:17:52.751Z,99542.88
2023-03-23T10:20:20.384Z,99540.50
2023-03-23T10:22:46.794Z,99520.41
2023-03-23T10:25:14.037Z,99520.75
2023-03-23T10:27:40.475Z,99524.94
2023-03-23T10:30:06.913Z,99526.13
2023-03-23T10:32:33.332Z,99529.84
2023-03-23T10:34:59.739Z,99541.09
2023-03-23T10:37:26.183Z,99539.50
2023-03-23T10:39:52.935Z,99537.44
2023-03-23T10:42:19.366Z,99528.63
2023-03-23T10:44:46.858Z,99521.41
2023-03-23T10:47:14.493Z,99526.66
2023-03-23T10:49:41.202Z,99511.78
2023-03-23T10:52:07.645Z,99511.34
2023-03-23T10:54:34.709Z,99514.59
2023-03-23T10:57:03.448Z,99512.16
2023-03-23T10:59:30.466Z,99502.91
2023-03-23T11:01:57.210Z,99512.97
2023-03-23T11:04:24.236Z,99507.72
2023-03-23T11:06:50.845Z,99507.34
2023-03-23T11:09:18.688Z,99501.72
2023-03-23T11:11:45.136Z,99510.97
2023-03-23T11:14:11.688Z,99514.97
2023-03-23T11:16:38.443Z,99515.34
2023-03-23T11:19:04.848Z,99517.00
2023-03-23T11:21:31.277Z,99518.19
2023-03-23T11:24:09.359Z,99527.03
2023-03-23T11:26:36.544Z,99525.03
2023-03-23T11:29:02.971Z,99525.84
2023-03-23T11:31:29.395Z,99520.63
2023-03-23T11:34:05.861Z,99522.63
2023-03-23T11:36:32.820Z,99537.06
2023-03-23T11:38:59.911Z,99528.94
2023-03-23T11:41:26.938Z,99526.13
2023-03-23T11:43:53.387Z,99526.13
2023-03-23T11:46:19.805Z,99533.78
2023-03-23T11:48:46.871Z,99536.97
2023-03-23T11:51:13.368Z,99546.63
2023-03-23T11:53:40.128Z,99558.72
2023-03-23T11:56:06.572Z,99557.50
2023-03-23T11:58:34.174Z,99561.09
2023-03-23T12:01:00.602Z,99575.38
2023-03-23T12:03:27.923Z,99577.41
2023-03-23T12:05:54.420Z,99570.47
2023-03-23T12:13:21.060Z,99572.91
2023-03-23T12:15:47.688Z,99571.72
2023-03-23T12:18:14.378Z,99566.22
2023-03-23T12:20:42.916Z,99572.28
2023-03-23T12:23:09.770Z,99565.41
2023-03-23T12:25:36.286Z,99573.97
2023-03-23T12:28:02.781Z,99561.91
2023-03-23T12:30:29.250Z,99566.37
2023-03-23T12:32:56.020Z,99563.91
2023-03-23T12:35:24.270Z,99552.25
2023-03-23T12:37:51.131Z,99546.28
2023-03-23T12:40:18.658Z,99553.06
2023-03-23T12:42:45.728Z,99550.59
2023-03-23T12:45:13.496Z,99546.63
2023-03-23T12:47:39.950Z,99547.91
2023-03-23T12:50:06.409Z,99545.06
2023-03-23T12:52:33.116Z,99531.78
2023-03-23T12:54:59.548Z,99539.84
2023-03-23T12:57:28.533Z,99529.41
2023-03-23T12:59:54.991Z,99544.25
2023-03-23T13:02:21.508Z,99541.84
2023-03-23T13:04:49.647Z,99545.00
2023-03-23T13:07:17.270Z,99535.41
2023-03-23T13:09:43.861Z,99530.22
2023-03-23T13:12:10.441Z,99531.03
2023-03-23T13:14:37.069Z,99532.62
2023-03-23T13:17:04.072Z,99536.72
2023-03-23T13:19:30.603Z,99544.75
2023-03-23T13:21:57.780Z,99534.69
2023-03-23T13:24:24.212Z,99523.78
2023-03-23T13:26:50.654Z,99529.41
2023-03-23T13:29:19.469Z,99528.25
2023-03-23T13:31:45.872Z,99528.25
2023-03-23T13:34:13.694Z,99527.06
2023-03-23T13:36:40.259Z,99514.56
2023-03-23T13:39:08.852Z,99527.03
2023-03-23T13:41:35.735Z,99517.78
2023-03-23T13:44:02.281Z,99506.50
2023-03-23T13:46:29.031Z,99496.09
2023-03-23T13:48:55.840Z,99482.78
2023-03-23T13:51:24.644Z,99488.44
2023-03-23T13:53:52.782Z,99494.88
2023-03-23T13:56:20.876Z,99486.81
2023-03-23T13:58:48.705Z,99481.56
2023-03-23T14:01:17.487Z,99481.56
2023-03-23T14:03:44.837Z,99481.56
2023-03-23T14:06:11.381Z,99480.75
2023-03-23T14:08:37.820Z,99477.09
2023-03-23T14:11:04.799Z,99492.19
2023-03-23T14:13:31.809Z,99473.59
2023-03-23T14:15:58.310Z,99460.75
2023-03-23T14:18:24.742Z,99474.06
2023-03-23T14:20:51.449Z,99471.31
2023-03-23T14:23:18.884Z,99472.53
2023-03-23T14:25:46.702Z,99461.09
2023-03-23T14:28:13.539Z,99457.09
2023-03-23T14:30:39.949Z,99457.91
2023-03-23T14:33:06.782Z,99450.81
2023-03-23T14:35:33.257Z,99461.31
2023-03-23T14:37:59.681Z,99474.56
2023-03-23T14:40:26.320Z,99485.91
2023-03-23T14:42:55.477Z,99485.47
2023-03-23T14:45:21.998Z,99490.00
2023-03-23T14:47:48.480Z,99485.19
2023-03-23T14:50:16.621Z,99490.03
2023-03-23T14:52:43.147Z,99484.81
2023-03-23T14:55:09.570Z,99483.59
2023-03-23T14:57:36.176Z,99490.44
2023-03-23T15:00:02.789Z,99482.78
2023-03-23T15:02:29.439Z,99490.84
2023-03-23T15:04:56.080Z,99479.56
2023-03-23T15:07:22.525Z,99475.53
2023-03-23T15:09:48.940Z,99491.22
2023-03-23T15:12:15.364Z,99482.37
2023-03-23T15:14:41.773Z,99478.78
2023-03-23T15:17:08.279Z,99477.53
2023-03-23T15:19:34.792Z,99486.44
2023-03-23T15:22:01.744Z,99473.94
2023-03-23T15:24:28.227Z,99477.97
2023-03-23T15:26:54.708Z,99477.56
2023-03-23T15:29:26.585Z,99484.00
2023-03-23T15:31:53.284Z,99488.00
2023-03-23T15:34:19.740Z,99490.84
2023-03-23T15:36:46.329Z,99477.16
2023-03-23T15:39:12.795Z,99500.91
2023-03-23T15:41:39.212Z,99502.06
2023-03-23T15:44:05.768Z,99507.31
2023-03-23T15:46:32.221Z,99504.50
2023-03-23T15:48:58.646Z,99509.72
2023-03-23T15:51:25.125Z,99520.56
2023-03-23T15:53:51.541Z,99521.78
2023-03-23T15:56:18.191Z,99519.78
2023-03-23T15:58:45.333Z,99518.56
2023-03-23T16:01:11.867Z,99516.56
2023-03-23T16:03:38.457Z,99536.28
2023-03-23T16:06:04.899Z,99528.63
2023-03-23T16:08:31.352Z,99541.50
2023-03-23T16:10:57.904Z,99532.22
2023-03-23T16:13:24.488Z,99542.66
2023-03-23T16:15:51.810Z,99531.00
2023-03-23T16:18:18.264Z,99524.56
2023-03-23T16:20:44.712Z,99534.59
2023-03-23T16:23:11.163Z,99524.97
2023-03-23T16:25:39.044Z,99532.19
2023-03-23T16:28:05.495Z,99539.06
2023-03-23T16:30:31.935Z,99539.84
2023-03-23T16:32:58.438Z,99550.31
2023-03-23T16:35:24.997Z,99558.75
2023-03-23T16:37:51.716Z,99551.91
2023-03-23T16:40:35.052Z,99574.78
2023-03-23T16:43:01.516Z,99577.22
2023-03-23T16:45:35.081Z,99564.78
2023-03-23T16:48:01.874Z,99572.84
2023-03-23T16:50:28.340Z,99570.38
2023-03-23T16:52:54.802Z,99581.22
2023-03-23T16:55:21.836Z,99576.38
2023-03-23T16:57:48.290Z,99562.34
2023-03-23T17:00:15.649Z,99569.59
2023-03-23T17:02:42.209Z,99572.44
2023-03-23T17:05:09.137Z,99559.94
2023-03-23T17:07:35.567Z,99578.81
2023-03-23T17:10:02.064Z,99576.25
2023-03-23T17:12:32.184Z,99580.97
2023-03-23T17:14:58.668Z,99582.25
2023-03-23T17:17:25.189Z,99583.72
2023-03-23T17:19:51.968Z,99569.47
2023-03-23T17:22:18.457Z,99590.41
2023-03-23T17:24:46.041Z,99600.28
2023-03-23T17:27:12.742Z,99601.12
2023-03-23T17:29:39.179Z,99602.78
2023-03-23T17:32:05.842Z,99602.72
2023-03-23T17:34:32.311Z,99592.09
2023-03-23T17:36:58.819Z,99609.47
2023-03-23T17:39:25.688Z,99600.84
2023-03-23T17:41:52.147Z,99604.59
2023-03-23T17:44:18.761Z,99600.19
2023-03-23T17:46:45.182Z,99605.88
2023-03-23T17:49:11.621Z,99602.09
2023-03-23T17:51:38.069Z,99601.72
2023-03-23T17:54:04.487Z,99603.25
2023-03-23T17:56:31.012Z,99600.09
2023-03-23T17:58:57.516Z,99608.06
2023-03-23T18:01:23.987Z,99608.84
2023-03-23T18:03:50.446Z,99605.56
2023-03-23T18:06:16.902Z,99607.25
2023-03-23T18:08:43.474Z,99616.75
2023-03-23T18:11:09.937Z,99612.78
2023-03-23T18:13:36.605Z,99608.75
2023-03-23T18:16:04.017Z,99620.28
2023-03-23T18:18:30.734Z,99618.75
2023-03-23T18:20:57.143Z,99620.03
2023-03-23T18:23:23.574Z,99634.09
2023-03-23T18:25:49.980Z,99625.03
2023-03-23T18:28:17.467Z,99634.19
2023-03-23T18:30:49.277Z,99631.88
2023-03-23T18:33:16.213Z,99625.75
2023-03-23T18:35:43.538Z,99620.56
2023-03-23T18:38:10.308Z,99621.00
2023-03-23T18:40:36.727Z,99623.91
2023-03-23T18:43:03.356Z,99618.56
2023-03-23T18:45:33.853Z,99616.16
2023-03-23T18:48:00.406Z,99616.56
2023-03-23T18:50:27.031Z,99613.53
2023-03-23T18:52:53.462Z,99608.72
2023-03-23T18:55:20.978Z,99614.50
2023-03-23T18:57:49.661Z,99623.28
2023-03-23T19:00:16.075Z,99621.66
2023-03-23T19:02:42.548Z,99621.94
2023-03-23T19:05:09.274Z,99626.56
2023-03-23T19:07:35.799Z,99626.97
2023-03-23T19:10:02.247Z,99632.69
2023-03-23T19:12:28.661Z,99629.91
2023-03-23T19:14:55.117Z,99624.22
2023-03-23T19:17:21.553Z,99616.62
2023-03-23T19:19:48.849Z,99618.94
2023-03-23T19:22:15.364Z,99620.75
2023-03-23T19:24:41.789Z,99616.50
2023-03-23T19:27:08.626Z,99622.28
2023-03-23T19:29:36.026Z,99615.59
2023-03-23T19:32:03.088Z,99622.09
2023-03-23T19:34:30.832Z,99614.09
2023-03-23T19:37:05.338Z,99612.00
2023-03-23T19:39:34.286Z,99615.31
2023-03-23T19:42:01.117Z,99608.31
2023-03-23T19:44:28.883Z,99599.91
2023-03-23T19:46:56.290Z,99608.31
2023-03-23T19:49:22.879Z,99601.84
2023-03-23T19:51:49.362Z,99606.72
2023-03-23T19:54:15.804Z,99600.16
2023-03-23T19:56:43.517Z,99610.56
2023-03-23T19:59:10.740Z,99613.16
2023-03-23T20:01:37.425Z,99609.75
2023-03-23T20:04:05.561Z,99609.84
2023-03-23T20:06:33.118Z,99607.50
2023-03-23T20:09:00.613Z,99610.78
2023-03-23T20:11:27.732Z,99608.62
2023-03-23T20:13:55.173Z,99607.94
2023-03-23T20:16:21.984Z,99609.38
2023-03-23T20:18:50.002Z,99616.09
2023-03-23T20:21:20.279Z,99618.41
2023-03-23T20:23:46.892Z,99617.34
2023-03-23T20:26:13.345Z,99619.37
2023-03-23T20:28:40.692Z,99622.16
2023-03-23T20:31:19.955Z,99620.09
2023-03-23T20:34:00.553Z,99607.75
2023-03-23T20:36:29.986Z,99610.56
2023-03-23T20:38:57.627Z,99616.59
2023-03-23T20:41:24.510Z,99615.78
2023-03-23T20:43:51.092Z,99610.19
2023-03-23T20:46:21.115Z,99619.47
2023-03-23T20:48:49.593Z,99621.88
2023-03-23T20:51:16.027Z,99633.38
2023-03-23T20:53:42.567Z,99622.41
2023-03-23T20:56:09.097Z,99634.44
2023-03-23T20:58:35.524Z,99636.56
2023-03-23T21:01:03.136Z,99628.16
2023-03-23T21:03:29.663Z,99631.38
2023-03-23T21:05:56.748Z,99625.44
2023-03-23T21:08:23.199Z,99617.16
2023-03-23T21:10:49.758Z,99619.34
2023-03-23T21:13:16.177Z,99622.94
2023-03-23T21:15:42.758Z,99614.47
2023-03-23T21:18:09.496Z,99620.97
2023-03-23T21:20:36.127Z,99618.69
2023-03-23T21:23:02.577Z,99615.62
2023-03-23T21:25:34.171Z,99614.50
2023-03-23T21:28:01.745Z,99611.59
2023-03-23T21:30:28.178Z,99607.66
2023-03-23T21:32:54.658Z,99593.72
2023-03-23T21:35:21.413Z,99600.13
2023-03-23T21:37:48.852Z,99594.84
2023-03-23T21:40:16.948Z,99595.75
2023-03-23T21:42:43.430Z,99587.91
2023-03-23T21:45:10.191Z,99587.28
2023-03-23T21:47:36.661Z,99583.13
2023-03-23T21:50:04.503Z,99575.59
2023-03-23T21:52:31.296Z,99581.31
2023-03-23T21:54:59.613Z,99580.66
2023-03-23T21:57:26.857Z,99577.06
2023-03-23T21:59:53.298Z,99569.88
2023-03-23T22:02:19.740Z,99577.97
2023-03-23T22:04:46.142Z,99577.62
2023-03-23T22:07:12.909Z,99571.63
2023-03-23T22:09:41.132Z,99575.72
2023-03-23T22:12:07.610Z,99564.47
2023-03-23T22:14:34.061Z,99564.09
2023-03-23T22:17:00.851Z,99560.09
2023-03-23T22:19:27.283Z,99571.72
2023-03-23T22:21:53.698Z,99569.97
2023-03-23T22:24:20.185Z,99570.81
2023-03-23T22:26:46.654Z,99559.16
2023-03-23T22:29:13.108Z,99556.47
2023-03-23T22:31:40.031Z,99559.09
2023-03-23T22:34:06.494Z,99551.16
2023-03-23T22:36:33.468Z,99543.03
2023-03-23T22:38:59.924Z,99549.91
2023-03-23T22:41:26.406Z,99545.91
2023-03-23T22:43:52.822Z,99546.28
2023-03-23T22:46:19.240Z,99538.34
2023-03-23T22:48:45.645Z,99531.19
2023-03-23T22:51:12.132Z,99529.53
2023-03-23T22:53:38.621Z,99527.75
2023-03-23T22:56:05.116Z,99521.81
2023-03-23T22:58:31.592Z,99515.41
2023-03-23T23:00:58.104Z,99511.41
2023-03-23T23:03:24.567Z,99503.00
2023-03-23T23:05:50.974Z,99509.03
2023-03-23T23:08:18.212Z,99501.44
2023-03-23T23:10:44.909Z,99497.91
2023-03-23T23:13:11.444Z,99503.13
2023-03-23T23:15:38.036Z,99492.34
2023-03-23T23:18:05.094Z,99492.75
2023-03-23T23:20:31.955Z,99491.50
2023-03-23T23:22:58.398Z,99490.06
2023-03-23T23:25:24.837Z,99481.25
2023-03-23T23:27:51.465Z,99476.34
2023-03-23T23:30:17.931Z,99477.47
2023-03-23T23:32:44.805Z,99477.06
2023-03-23T23:35:11.262Z,99483.47
2023-03-23T23:37:38.036Z,99480.63
2023-03-23T23:40:07.859Z,99473.41
2023-03-23T23:42:34.280Z,99471.84
2023-03-23T23:45:00.862Z,99474.25
2023-03-23T23:47:27.368Z,99470.81
2023-03-23T23:49:53.863Z,99466.38
2023-03-23T23:52:20.295Z,99460.37
2023-03-23T23:54:48.381Z,99463.53
2023-03-23T23:57:15.005Z,99455.03
2023-03-23T23:59:41.492Z,99454.72
